sensor_id;sensor_type;location;lat;lon;timestamp;P1;durP1;ratioP1;P2;durP2;ratioP2
19942;SDS011;10133;50.956;17.276;2022-12-29T00:02:12;4.67;;;3.03;;
19942;SDS011;10133;50.956;17.276;2022-12-29T00:04:39;3.73;;;2.63;;
19942;SDS011;10133;50.956;17.276;2022-12-29T00:07:06;7.77;;;2.70;;
19942;SDS011;10133;50.956;17.276;2022-12-29T00:09:34;5.97;;;3.50;;
19942;SDS011;10133;50.956;17.276;2022-12-29T00:12:01;6.27;;;3.67;;
19942;SDS011;10133;50.956;17.276;2022-12-29T00:14:29;5.70;;;2.87;;
19942;SDS011;10133;50.956;17.276;2022-12-29T00:17:15;8.70;;;4.37;;
19942;SDS011;10133;50.956;17.276;2022-12-29T00:19:43;7.53;;;2.30;;
19942;SDS011;10133;50.956;17.276;2022-12-29T00:22:28;6.47;;;2.80;;
19942;SDS011;10133;50.956;17.276;2022-12-29T00:25:14;4.57;;;2.40;;
19942;SDS011;10133;50.956;17.276;2022-12-29T00:28:00;7.43;;;2.63;;
19942;SDS011;10133;50.956;17.276;2022-12-29T00:30:45;6.83;;;3.60;;
19942;SDS011;10133;50.956;17.276;2022-12-29T00:33:32;3.60;;;2.10;;
19942;SDS011;10133;50.956;17.276;2022-12-29T00:36:19;7.83;;;3.20;;
19942;SDS011;10133;50.956;17.276;2022-12-29T00:38:51;5.40;;;3.20;;
19942;SDS011;10133;50.956;17.276;2022-12-29T00:41:40;4.27;;;2.60;;
19942;SDS011;10133;50.956;17.276;2022-12-29T00:44:26;6.40;;;2.47;;
19942;SDS011;10133;50.956;17.276;2022-12-29T00:46:53;7.33;;;3.30;;
19942;SDS011;10133;50.956;17.276;2022-12-29T00:49:19;3.63;;;2.27;;
19942;SDS011;10133;50.956;17.276;2022-12-29T00:52:01;7.57;;;2.60;;
19942;SDS011;10133;50.956;17.276;2022-12-29T00:54:31;7.57;;;2.53;;
19942;SDS011;10133;50.956;17.276;2022-12-29T00:57:00;3.53;;;2.30;;
19942;SDS011;10133;50.956;17.276;2022-12-29T00:59:28;6.80;;;3.37;;
19942;SDS011;10133;50.956;17.276;2022-12-29T01:01:55;5.67;;;2.50;;
19942;SDS011;10133;50.956;17.276;2022-12-29T01:04:23;4.57;;;2.30;;
19942;SDS011;10133;50.956;17.276;2022-12-29T01:06:51;7.80;;;3.47;;
19942;SDS011;10133;50.956;17.276;2022-12-29T01:09:19;4.47;;;2.50;;
19942;SDS011;10133;50.956;17.276;2022-12-29T01:15:27;4.67;;;2.40;;
19942;SDS011;10133;50.956;17.276;2022-12-29T01:17:54;5.53;;;2.60;;
19942;SDS011;10133;50.956;17.276;2022-12-29T01:20:21;6.73;;;2.80;;
19942;SDS011;10133;50.956;17.276;2022-12-29T01:22:48;5.13;;;2.63;;
19942;SDS011;10133;50.956;17.276;2022-12-29T01:25:15;4.53;;;2.57;;
19942;SDS011;10133;50.956;17.276;2022-12-29T01:27:43;4.77;;;2.70;;
19942;SDS011;10133;50.956;17.276;2022-12-29T01:30:10;5.47;;;2.50;;
19942;SDS011;10133;50.956;17.276;2022-12-29T01:32:37;4.83;;;2.10;;
19942;SDS011;10133;50.956;17.276;2022-12-29T01:35:04;4.37;;;2.40;;
19942;SDS011;10133;50.956;17.276;2022-12-29T01:37:31;4.57;;;2.20;;
19942;SDS011;10133;50.956;17.276;2022-12-29T01:39:58;4.20;;;2.63;;
19942;SDS011;10133;50.956;17.276;2022-12-29T01:42:25;5.40;;;2.90;;
19942;SDS011;10133;50.956;17.276;2022-12-29T01:45:02;9.30;;;4.00;;
19942;SDS011;10133;50.956;17.276;2022-12-29T01:47:36;18.50;;;6.37;;
19942;SDS011;10133;50.956;17.276;2022-12-29T01:50:07;14.40;;;4.90;;
19942;SDS011;10133;50.956;17.276;2022-12-29T01:52:38;12.70;;;4.73;;
19942;SDS011;10133;50.956;17.276;2022-12-29T01:55:09;18.67;;;7.00;;
19942;SDS011;10133;50.956;17.276;2022-12-29T01:57:37;19.93;;;6.87;;
19942;SDS011;10133;50.956;17.276;2022-12-29T02:00:11;4.87;;;2.63;;
19942;SDS011;10133;50.956;17.276;2022-12-29T02:02:44;6.37;;;3.73;;
19942;SDS011;10133;50.956;17.276;2022-12-29T02:05:15;3.73;;;2.20;;
19942;SDS011;10133;50.956;17.276;2022-12-29T02:07:51;8.80;;;4.40;;
19942;SDS011;10133;50.956;17.276;2022-12-29T02:10:20;6.07;;;2.63;;
19942;SDS011;10133;50.956;17.276;2022-12-29T02:12:49;3.93;;;2.23;;
19942;SDS011;10133;50.956;17.276;2022-12-29T02:15:16;5.27;;;3.00;;
19942;SDS011;10133;50.956;17.276;2022-12-29T02:17:53;4.33;;;2.27;;
19942;SDS011;10133;50.956;17.276;2022-12-29T02:31:54;9.30;;;3.30;;
19942;SDS011;10133;50.956;17.276;2022-12-29T02:37:09;5.40;;;2.70;;
19942;SDS011;10133;50.956;17.276;2022-12-29T02:40:06;4.73;;;2.20;;
19942;SDS011;10133;50.956;17.276;2022-12-29T02:42:48;5.13;;;1.97;;
19942;SDS011;10133;50.956;17.276;2022-12-29T02:45:39;4.20;;;1.90;;
19942;SDS011;10133;50.956;17.276;2022-12-29T02:50:57;4.10;;;2.47;;
19942;SDS011;10133;50.956;17.276;2022-12-29T02:53:28;3.50;;;2.20;;
19942;SDS011;10133;50.956;17.276;2022-12-29T02:56:15;4.37;;;2.50;;
19942;SDS011;10133;50.956;17.276;2022-12-29T02:58:43;3.37;;;2.13;;
19942;SDS011;10133;50.956;17.276;2022-12-29T03:09:36;3.60;;;1.90;;
19942;SDS011;10133;50.956;17.276;2022-12-29T03:11:56;4.03;;;2.03;;
19942;SDS011;10133;50.956;17.276;2022-12-29T03:14:37;2.70;;;1.70;;
19942;SDS011;10133;50.956;17.276;2022-12-29T03:17:43;5.13;;;2.30;;
19942;SDS011;10133;50.956;17.276;2022-12-29T03:20:14;3.30;;;1.80;;
19942;SDS011;10133;50.956;17.276;2022-12-29T03:22:47;3.77;;;1.73;;
19942;SDS011;10133;50.956;17.276;2022-12-29T03:25:22;3.43;;;2.10;;
19942;SDS011;10133;50.956;17.276;2022-12-29T03:28:17;2.63;;;1.53;;
19942;SDS011;10133;50.956;17.276;2022-12-29T03:31:01;4.17;;;1.70;;
19942;SDS011;10133;50.956;17.276;2022-12-29T03:33:30;3.83;;;2.00;;
19942;SDS011;10133;50.956;17.276;2022-12-29T03:35:59;2.83;;;2.00;;
19942;SDS011;10133;50.956;17.276;2022-12-29T03:41:09;3.97;;;2.00;;
19942;SDS011;10133;50.956;17.276;2022-12-29T03:43:40;2.50;;;1.50;;
19942;SDS011;10133;50.956;17.276;2022-12-29T03:46:07;5.20;;;1.83;;
19942;SDS011;10133;50.956;17.276;2022-12-29T03:48:34;2.00;;;1.50;;
19942;SDS011;10133;50.956;17.276;2022-12-29T03:51:01;3.83;;;2.00;;
19942;SDS011;10133;50.956;17.276;2022-12-29T03:53:28;4.60;;;1.93;;
19942;SDS011;10133;50.956;17.276;2022-12-29T03:55:55;4.57;;;2.03;;
19942;SDS011;10133;50.956;17.276;2022-12-29T03:58:22;3.43;;;2.30;;
19942;SDS011;10133;50.956;17.276;2022-12-29T04:00:49;4.93;;;2.43;;
19942;SDS011;10133;50.956;17.276;2022-12-29T04:03:16;5.80;;;2.50;;
19942;SDS011;10133;50.956;17.276;2022-12-29T04:05:43;4.03;;;2.10;;
19942;SDS011;10133;50.956;17.276;2022-12-29T04:08:10;5.47;;;2.60;;
19942;SDS011;10133;50.956;17.276;2022-12-29T04:10:37;8.60;;;2.30;;
19942;SDS011;10133;50.956;17.276;2022-12-29T04:13:04;7.17;;;2.50;;
19942;SDS011;10133;50.956;17.276;2022-12-29T04:15:31;4.03;;;2.70;;
19942;SDS011;10133;50.956;17.276;2022-12-29T04:17:58;6.00;;;2.83;;
19942;SDS011;10133;50.956;17.276;2022-12-29T04:20:24;5.10;;;2.77;;
19942;SDS011;10133;50.956;17.276;2022-12-29T04:23:10;7.90;;;3.30;;
19942;SDS011;10133;50.956;17.276;2022-12-29T04:25:37;3.20;;;2.40;;
19942;SDS011;10133;50.956;17.276;2022-12-29T04:28:04;7.50;;;2.73;;
19942;SDS011;10133;50.956;17.276;2022-12-29T04:30:31;5.77;;;1.97;;
19942;SDS011;10133;50.956;17.276;2022-12-29T04:32:59;3.50;;;2.27;;
19942;SDS011;10133;50.956;17.276;2022-12-29T04:35:26;4.23;;;2.50;;
19942;SDS011;10133;50.956;17.276;2022-12-29T04:37:53;6.13;;;3.50;;
19942;SDS011;10133;50.956;17.276;2022-12-29T04:40:20;4.90;;;2.87;;
19942;SDS011;10133;50.956;17.276;2022-12-29T04:42:47;5.03;;;2.80;;
19942;SDS011;10133;50.956;17.276;2022-12-29T04:45:14;5.50;;;2.87;;
19942;SDS011;10133;50.956;17.276;2022-12-29T04:47:41;3.80;;;2.57;;
19942;SDS011;10133;50.956;17.276;2022-12-29T04:50:08;5.33;;;3.27;;
19942;SDS011;10133;50.956;17.276;2022-12-29T04:52:35;5.07;;;2.70;;
19942;SDS011;10133;50.956;17.276;2022-12-29T04:55:03;6.90;;;3.17;;
19942;SDS011;10133;50.956;17.276;2022-12-29T04:57:30;5.60;;;3.03;;
19942;SDS011;10133;50.956;17.276;2022-12-29T04:59:58;5.47;;;3.13;;
19942;SDS011;10133;50.956;17.276;2022-12-29T05:02:25;5.17;;;3.30;;
19942;SDS011;10133;50.956;17.276;2022-12-29T05:04:52;5.87;;;3.73;;
19942;SDS011;10133;50.956;17.276;2022-12-29T05:07:19;4.73;;;3.33;;
19942;SDS011;10133;50.956;17.276;2022-12-29T05:09:46;5.30;;;3.27;;
19942;SDS011;10133;50.956;17.276;2022-12-29T05:12:13;6.30;;;2.77;;
19942;SDS011;10133;50.956;17.276;2022-12-29T05:14:40;3.63;;;2.87;;
19942;SDS011;10133;50.956;17.276;2022-12-29T05:20:30;5.37;;;3.33;;
19942;SDS011;10133;50.956;17.276;2022-12-29T05:22:57;7.23;;;3.70;;
19942;SDS011;10133;50.956;17.276;2022-12-29T05:25:24;4.70;;;3.10;;
19942;SDS011;10133;50.956;17.276;2022-12-29T05:27:51;5.83;;;3.03;;
19942;SDS011;10133;50.956;17.276;2022-12-29T05:30:18;5.53;;;3.77;;
19942;SDS011;10133;50.956;17.276;2022-12-29T05:32:45;5.80;;;3.33;;
19942;SDS011;10133;50.956;17.276;2022-12-29T05:35:12;5.00;;;3.30;;
19942;SDS011;10133;50.956;17.276;2022-12-29T05:37:39;7.23;;;3.27;;
19942;SDS011;10133;50.956;17.276;2022-12-29T05:40:06;7.93;;;3.70;;
19942;SDS011;10133;50.956;17.276;2022-12-29T05:42:34;5.27;;;3.27;;
19942;SDS011;10133;50.956;17.276;2022-12-29T05:45:01;7.13;;;3.40;;
19942;SDS011;10133;50.956;17.276;2022-12-29T05:47:28;6.13;;;3.50;;
19942;SDS011;10133;50.956;17.276;2022-12-29T05:49:55;5.93;;;3.40;;
19942;SDS011;10133;50.956;17.276;2022-12-29T05:55:47;5.93;;;3.67;;
19942;SDS011;10133;50.956;17.276;2022-12-29T05:58:15;5.33;;;3.60;;
19942;SDS011;10133;50.956;17.276;2022-12-29T06:00:42;5.43;;;3.30;;
19942;SDS011;10133;50.956;17.276;2022-12-29T06:03:10;6.87;;;3.93;;
19942;SDS011;10133;50.956;17.276;2022-12-29T06:05:37;7.70;;;4.20;;
19942;SDS011;10133;50.956;17.276;2022-12-29T06:08:04;6.83;;;4.47;;
19942;SDS011;10133;50.956;17.276;2022-12-29T06:10:31;6.63;;;3.90;;
19942;SDS011;10133;50.956;17.276;2022-12-29T06:12:58;8.30;;;3.43;;
19942;SDS011;10133;50.956;17.276;2022-12-29T06:15:25;6.47;;;3.70;;
19942;SDS011;10133;50.956;17.276;2022-12-29T06:17:52;8.57;;;4.13;;
19942;SDS011;10133;50.956;17.276;2022-12-29T06:20:19;6.63;;;4.00;;
19942;SDS011;10133;50.956;17.276;2022-12-29T06:22:46;7.93;;;4.23;;
19942;SDS011;10133;50.956;17.276;2022-12-29T06:25:13;6.13;;;3.83;;
19942;SDS011;10133;50.956;17.276;2022-12-29T06:27:41;10.10;;;4.00;;
19942;SDS011;10133;50.956;17.276;2022-12-29T06:30:08;5.73;;;3.57;;
19942;SDS011;10133;50.956;17.276;2022-12-29T06:32:36;5.37;;;3.87;;
19942;SDS011;10133;50.956;17.276;2022-12-29T06:35:04;5.13;;;3.83;;
19942;SDS011;10133;50.956;17.276;2022-12-29T06:37:32;6.70;;;3.70;;
19942;SDS011;10133;50.956;17.276;2022-12-29T06:39:59;7.70;;;3.80;;
19942;SDS011;10133;50.956;17.276;2022-12-29T06:42:27;7.93;;;4.23;;
19942;SDS011;10133;50.956;17.276;2022-12-29T06:44:54;9.83;;;4.03;;
19942;SDS011;10133;50.956;17.276;2022-12-29T06:47:23;6.20;;;3.67;;
19942;SDS011;10133;50.956;17.276;2022-12-29T06:49:50;9.60;;;4.40;;
19942;SDS011;10133;50.956;17.276;2022-12-29T06:52:17;6.77;;;4.17;;
19942;SDS011;10133;50.956;17.276;2022-12-29T06:54:44;9.03;;;4.07;;
19942;SDS011;10133;50.956;17.276;2022-12-29T06:57:11;8.97;;;4.13;;
19942;SDS011;10133;50.956;17.276;2022-12-29T06:59:39;7.27;;;4.10;;
19942;SDS011;10133;50.956;17.276;2022-12-29T07:02:06;6.97;;;4.30;;
19942;SDS011;10133;50.956;17.276;2022-12-29T07:04:33;13.30;;;4.07;;
19942;SDS011;10133;50.956;17.276;2022-12-29T07:07:00;8.90;;;4.33;;
19942;SDS011;10133;50.956;17.276;2022-12-29T07:09:27;7.07;;;4.10;;
19942;SDS011;10133;50.956;17.276;2022-12-29T07:11:54;7.83;;;4.40;;
19942;SDS011;10133;50.956;17.276;2022-12-29T07:14:21;6.97;;;4.20;;
19942;SDS011;10133;50.956;17.276;2022-12-29T07:16:48;7.40;;;4.07;;
19942;SDS011;10133;50.956;17.276;2022-12-29T07:19:15;8.70;;;4.30;;
19942;SDS011;10133;50.956;17.276;2022-12-29T07:21:42;6.53;;;3.60;;
19942;SDS011;10133;50.956;17.276;2022-12-29T07:24:12;6.83;;;4.33;;
19942;SDS011;10133;50.956;17.276;2022-12-29T07:26:39;9.73;;;4.57;;
19942;SDS011;10133;50.956;17.276;2022-12-29T07:29:07;6.23;;;3.80;;
19942;SDS011;10133;50.956;17.276;2022-12-29T07:31:34;9.50;;;4.10;;
19942;SDS011;10133;50.956;17.276;2022-12-29T07:34:01;10.33;;;4.30;;
19942;SDS011;10133;50.956;17.276;2022-12-29T07:36:28;6.90;;;3.80;;
19942;SDS011;10133;50.956;17.276;2022-12-29T07:39:00;9.57;;;4.47;;
19942;SDS011;10133;50.956;17.276;2022-12-29T07:41:27;11.17;;;4.53;;
19942;SDS011;10133;50.956;17.276;2022-12-29T07:43:54;8.33;;;4.47;;
19942;SDS011;10133;50.956;17.276;2022-12-29T07:46:21;8.07;;;4.40;;
19942;SDS011;10133;50.956;17.276;2022-12-29T07:49:08;10.07;;;4.23;;
19942;SDS011;10133;50.956;17.276;2022-12-29T07:51:35;8.43;;;4.50;;
19942;SDS011;10133;50.956;17.276;2022-12-29T07:54:02;10.03;;;4.43;;
19942;SDS011;10133;50.956;17.276;2022-12-29T07:56:29;6.43;;;4.10;;
19942;SDS011;10133;50.956;17.276;2022-12-29T07:58:56;9.23;;;5.40;;
19942;SDS011;10133;50.956;17.276;2022-12-29T08:01:23;9.63;;;4.80;;
19942;SDS011;10133;50.956;17.276;2022-12-29T08:03:50;10.03;;;6.27;;
19942;SDS011;10133;50.956;17.276;2022-12-29T08:06:22;7.00;;;3.77;;
19942;SDS011;10133;50.956;17.276;2022-12-29T08:08:49;5.33;;;3.50;;
19942;SDS011;10133;50.956;17.276;2022-12-29T08:11:16;6.80;;;3.67;;
19942;SDS011;10133;50.956;17.276;2022-12-29T08:13:43;5.13;;;3.27;;
19942;SDS011;10133;50.956;17.276;2022-12-29T08:16:10;5.30;;;3.27;;
19942;SDS011;10133;50.956;17.276;2022-12-29T08:18:37;8.27;;;3.83;;
19942;SDS011;10133;50.956;17.276;2022-12-29T08:21:04;8.67;;;3.73;;
19942;SDS011;10133;50.956;17.276;2022-12-29T08:23:32;9.23;;;3.83;;
19942;SDS011;10133;50.956;17.276;2022-12-29T08:26:03;5.03;;;3.63;;
19942;SDS011;10133;50.956;17.276;2022-12-29T08:28:31;7.53;;;3.90;;
19942;SDS011;10133;50.956;17.276;2022-12-29T08:31:00;5.27;;;3.63;;
19942;SDS011;10133;50.956;17.276;2022-12-29T08:33:28;6.40;;;3.43;;
19942;SDS011;10133;50.956;17.276;2022-12-29T08:36:05;8.00;;;3.70;;
19942;SDS011;10133;50.956;17.276;2022-12-29T08:38:33;4.87;;;3.50;;
19942;SDS011;10133;50.956;17.276;2022-12-29T08:41:00;5.90;;;3.73;;
19942;SDS011;10133;50.956;17.276;2022-12-29T08:43:29;6.77;;;3.97;;
19942;SDS011;10133;50.956;17.276;2022-12-29T08:45:57;5.30;;;3.20;;
19942;SDS011;10133;50.956;17.276;2022-12-29T08:48:26;5.10;;;3.27;;
19942;SDS011;10133;50.956;17.276;2022-12-29T08:50:54;6.57;;;3.50;;
19942;SDS011;10133;50.956;17.276;2022-12-29T08:53:22;6.23;;;3.67;;
19942;SDS011;10133;50.956;17.276;2022-12-29T08:55:54;7.13;;;3.60;;
19942;SDS011;10133;50.956;17.276;2022-12-29T08:58:30;10.27;;;4.30;;
19942;SDS011;10133;50.956;17.276;2022-12-29T09:00:57;8.47;;;4.27;;
19942;SDS011;10133;50.956;17.276;2022-12-29T09:03:25;5.13;;;3.30;;
19942;SDS011;10133;50.956;17.276;2022-12-29T09:06:13;5.20;;;3.53;;
19942;SDS011;10133;50.956;17.276;2022-12-29T09:08:41;7.47;;;3.40;;
19942;SDS011;10133;50.956;17.276;2022-12-29T09:13:45;6.60;;;3.20;;
19942;SDS011;10133;50.956;17.276;2022-12-29T09:16:13;7.07;;;3.70;;
19942;SDS011;10133;50.956;17.276;2022-12-29T09:18:41;6.40;;;3.53;;
19942;SDS011;10133;50.956;17.276;2022-12-29T09:21:09;8.07;;;4.23;;
19942;SDS011;10133;50.956;17.276;2022-12-29T09:23:37;5.03;;;3.60;;
19942;SDS011;10133;50.956;17.276;2022-12-29T09:26:04;8.10;;;4.17;;
19942;SDS011;10133;50.956;17.276;2022-12-29T09:28:31;8.87;;;3.83;;
19942;SDS011;10133;50.956;17.276;2022-12-29T09:30:59;4.97;;;3.03;;
19942;SDS011;10133;50.956;17.276;2022-12-29T09:33:26;6.83;;;3.30;;
19942;SDS011;10133;50.956;17.276;2022-12-29T09:35:54;7.57;;;3.93;;
19942;SDS011;10133;50.956;17.276;2022-12-29T09:38:22;10.67;;;4.43;;
19942;SDS011;10133;50.956;17.276;2022-12-29T09:40:51;7.97;;;4.10;;
19942;SDS011;10133;50.956;17.276;2022-12-29T09:51:34;6.20;;;3.30;;
19942;SDS011;10133;50.956;17.276;2022-12-29T09:54:16;4.07;;;2.90;;
19942;SDS011;10133;50.956;17.276;2022-12-29T09:56:50;7.73;;;3.37;;
19942;SDS011;10133;50.956;17.276;2022-12-29T09:59:20;5.17;;;3.07;;
19942;SDS011;10133;50.956;17.276;2022-12-29T10:01:59;4.97;;;3.33;;
19942;SDS011;10133;50.956;17.276;2022-12-29T10:04:49;5.57;;;3.20;;
19942;SDS011;10133;50.956;17.276;2022-12-29T10:07:21;5.30;;;3.40;;
19942;SDS011;10133;50.956;17.276;2022-12-29T10:13:04;8.50;;;3.37;;
19942;SDS011;10133;50.956;17.276;2022-12-29T10:15:54;5.80;;;3.57;;
19942;SDS011;10133;50.956;17.276;2022-12-29T10:18:36;6.27;;;3.17;;
19942;SDS011;10133;50.956;17.276;2022-12-29T10:23:38;5.30;;;3.47;;
19942;SDS011;10133;50.956;17.276;2022-12-29T10:26:28;7.10;;;4.00;;
19942;SDS011;10133;50.956;17.276;2022-12-29T10:29:08;7.13;;;4.10;;
19942;SDS011;10133;50.956;17.276;2022-12-29T10:36:58;11.73;;;4.47;;
19942;SDS011;10133;50.956;17.276;2022-12-29T10:39:45;12.60;;;4.80;;
19942;SDS011;10133;50.956;17.276;2022-12-29T10:45:21;9.37;;;4.50;;
19942;SDS011;10133;50.956;17.276;2022-12-29T10:50:46;12.20;;;4.73;;
19942;SDS011;10133;50.956;17.276;2022-12-29T10:53:19;7.30;;;4.27;;
19942;SDS011;10133;50.956;17.276;2022-12-29T10:55:48;11.40;;;4.83;;
19942;SDS011;10133;50.956;17.276;2022-12-29T10:58:16;13.83;;;5.50;;
19942;SDS011;10133;50.956;17.276;2022-12-29T11:00:48;10.53;;;5.13;;
19942;SDS011;10133;50.956;17.276;2022-12-29T11:08:41;7.70;;;4.73;;
19942;SDS011;10133;50.956;17.276;2022-12-29T11:11:22;8.23;;;4.57;;
19942;SDS011;10133;50.956;17.276;2022-12-29T11:14:02;9.83;;;5.30;;
19942;SDS011;10133;50.956;17.276;2022-12-29T11:16:51;9.33;;;4.53;;
19942;SDS011;10133;50.956;17.276;2022-12-29T11:19:27;8.00;;;4.73;;
19942;SDS011;10133;50.956;17.276;2022-12-29T11:22:14;6.90;;;4.30;;
19942;SDS011;10133;50.956;17.276;2022-12-29T11:24:49;9.77;;;4.13;;
19942;SDS011;10133;50.956;17.276;2022-12-29T11:27:19;11.87;;;4.73;;
19942;SDS011;10133;50.956;17.276;2022-12-29T11:29:52;10.10;;;4.63;;
19942;SDS011;10133;50.956;17.276;2022-12-29T11:32:27;6.20;;;4.00;;
19942;SDS011;10133;50.956;17.276;2022-12-29T11:34:56;10.20;;;4.60;;
19942;SDS011;10133;50.956;17.276;2022-12-29T11:37:36;7.00;;;3.77;;
19942;SDS011;10133;50.956;17.276;2022-12-29T11:40:06;5.77;;;3.63;;
19942;SDS011;10133;50.956;17.276;2022-12-29T11:45:31;7.47;;;3.83;;
19942;SDS011;10133;50.956;17.276;2022-12-29T11:48:12;8.27;;;4.10;;
19942;SDS011;10133;50.956;17.276;2022-12-29T11:50:53;6.67;;;3.90;;
19942;SDS011;10133;50.956;17.276;2022-12-29T11:55:56;6.87;;;3.80;;
19942;SDS011;10133;50.956;17.276;2022-12-29T11:58:34;8.27;;;3.43;;
19942;SDS011;10133;50.956;17.276;2022-12-29T12:06:28;14.30;;;9.23;;
19942;SDS011;10133;50.956;17.276;2022-12-29T12:08:59;12.33;;;8.50;;
19942;SDS011;10133;50.956;17.276;2022-12-29T12:11:32;8.67;;;5.03;;
19942;SDS011;10133;50.956;17.276;2022-12-29T12:16:54;12.20;;;5.57;;
19942;SDS011;10133;50.956;17.276;2022-12-29T12:19:44;10.17;;;5.33;;
19942;SDS011;10133;50.956;17.276;2022-12-29T12:22:25;12.07;;;5.20;;
19942;SDS011;10133;50.956;17.276;2022-12-29T12:24:55;8.73;;;5.23;;
19942;SDS011;10133;50.956;17.276;2022-12-29T12:27:36;9.80;;;5.27;;
19942;SDS011;10133;50.956;17.276;2022-12-29T12:30:20;9.93;;;4.80;;
19942;SDS011;10133;50.956;17.276;2022-12-29T12:32:54;8.50;;;4.40;;
19942;SDS011;10133;50.956;17.276;2022-12-29T12:43:49;8.27;;;4.97;;
19942;SDS011;10133;50.956;17.276;2022-12-29T12:55:18;10.53;;;4.77;;
19942;SDS011;10133;50.956;17.276;2022-12-29T13:01:11;8.00;;;5.03;;
19942;SDS011;10133;50.956;17.276;2022-12-29T13:10:00;9.97;;;5.93;;
19942;SDS011;10133;50.956;17.276;2022-12-29T13:15:28;8.27;;;5.90;;
19942;SDS011;10133;50.956;17.276;2022-12-29T13:21:17;13.70;;;6.23;;
19942;SDS011;10133;50.956;17.276;2022-12-29T13:23:59;12.53;;;6.70;;
19942;SDS011;10133;50.956;17.276;2022-12-29T13:26:45;12.93;;;7.10;;
19942;SDS011;10133;50.956;17.276;2022-12-29T13:29:36;9.20;;;5.53;;
19942;SDS011;10133;50.956;17.276;2022-12-29T13:35:06;13.17;;;6.70;;
19942;SDS011;10133;50.956;17.276;2022-12-29T13:37:52;9.63;;;5.23;;
19942;SDS011;10133;50.956;17.276;2022-12-29T13:40:24;8.53;;;5.13;;
19942;SDS011;10133;50.956;17.276;2022-12-29T13:42:55;6.43;;;4.33;;
19942;SDS011;10133;50.956;17.276;2022-12-29T13:45:23;6.50;;;4.10;;
19942;SDS011;10133;50.956;17.276;2022-12-29T13:50:34;7.53;;;4.53;;
19942;SDS011;10133;50.956;17.276;2022-12-29T14:04:03;11.73;;;5.20;;
19942;SDS011;10133;50.956;17.276;2022-12-29T14:06:38;10.60;;;5.73;;
19942;SDS011;10133;50.956;17.276;2022-12-29T14:09:53;12.27;;;6.10;;
19942;SDS011;10133;50.956;17.276;2022-12-29T14:12:21;8.73;;;4.93;;
19942;SDS011;10133;50.956;17.276;2022-12-29T14:17:37;9.83;;;5.20;;
19942;SDS011;10133;50.956;17.276;2022-12-29T14:20:15;11.77;;;6.40;;
19942;SDS011;10133;50.956;17.276;2022-12-29T14:22:59;12.00;;;5.93;;
19942;SDS011;10133;50.956;17.276;2022-12-29T14:31:00;11.47;;;5.93;;
19942;SDS011;10133;50.956;17.276;2022-12-29T14:33:29;11.73;;;5.57;;
19942;SDS011;10133;50.956;17.276;2022-12-29T14:36:18;12.33;;;6.47;;
19942;SDS011;10133;50.956;17.276;2022-12-29T14:38:50;13.60;;;6.27;;
19942;SDS011;10133;50.956;17.276;2022-12-29T14:41:25;16.40;;;7.67;;
19942;SDS011;10133;50.956;17.276;2022-12-29T14:43:59;10.90;;;6.63;;
19942;SDS011;10133;50.956;17.276;2022-12-29T14:49:24;12.43;;;6.73;;
19942;SDS011;10133;50.956;17.276;2022-12-29T14:51:54;17.87;;;8.03;;
19942;SDS011;10133;50.956;17.276;2022-12-29T14:57:05;16.47;;;8.80;;
19942;SDS011;10133;50.956;17.276;2022-12-29T14:59:34;17.07;;;8.30;;
19942;SDS011;10133;50.956;17.276;2022-12-29T15:02:03;15.27;;;8.73;;
19942;SDS011;10133;50.956;17.276;2022-12-29T15:04:38;12.00;;;6.97;;
19942;SDS011;10133;50.956;17.276;2022-12-29T15:07:07;13.70;;;7.17;;
19942;SDS011;10133;50.956;17.276;2022-12-29T15:09:37;13.67;;;6.67;;
19942;SDS011;10133;50.956;17.276;2022-12-29T15:14:49;14.90;;;8.40;;
19942;SDS011;10133;50.956;17.276;2022-12-29T15:17:29;15.50;;;7.87;;
19942;SDS011;10133;50.956;17.276;2022-12-29T15:19:58;13.97;;;8.07;;
19942;SDS011;10133;50.956;17.276;2022-12-29T15:22:26;13.47;;;7.87;;
19942;SDS011;10133;50.956;17.276;2022-12-29T15:24:54;13.20;;;7.77;;
19942;SDS011;10133;50.956;17.276;2022-12-29T15:27:23;12.93;;;8.20;;
19942;SDS011;10133;50.956;17.276;2022-12-29T15:29:58;14.10;;;7.97;;
19942;SDS011;10133;50.956;17.276;2022-12-29T15:32:28;13.20;;;7.87;;
19942;SDS011;10133;50.956;17.276;2022-12-29T15:35:20;14.33;;;7.90;;
19942;SDS011;10133;50.956;17.276;2022-12-29T15:37:48;17.90;;;8.47;;
19942;SDS011;10133;50.956;17.276;2022-12-29T15:40:22;16.33;;;7.80;;
19942;SDS011;10133;50.956;17.276;2022-12-29T15:45:35;20.10;;;9.73;;
19942;SDS011;10133;50.956;17.276;2022-12-29T15:48:03;31.33;;;14.73;;
19942;SDS011;10133;50.956;17.276;2022-12-29T15:50:31;20.67;;;10.60;;
19942;SDS011;10133;50.956;17.276;2022-12-29T15:53:01;21.20;;;9.63;;
19942;SDS011;10133;50.956;17.276;2022-12-29T15:55:36;21.67;;;11.87;;
19942;SDS011;10133;50.956;17.276;2022-12-29T15:58:05;20.87;;;11.63;;
19942;SDS011;10133;50.956;17.276;2022-12-29T16:00:49;23.47;;;12.20;;
19942;SDS011;10133;50.956;17.276;2022-12-29T16:03:27;18.30;;;10.33;;
19942;SDS011;10133;50.956;17.276;2022-12-29T16:09:35;22.00;;;10.67;;
19942;SDS011;10133;50.956;17.276;2022-12-29T16:11:51;19.10;;;10.13;;
19942;SDS011;10133;50.956;17.276;2022-12-29T16:14:27;26.17;;;10.57;;
19942;SDS011;10133;50.956;17.276;2022-12-29T16:17:00;18.27;;;9.40;;
19942;SDS011;10133;50.956;17.276;2022-12-29T16:19:34;16.27;;;8.97;;
19942;SDS011;10133;50.956;17.276;2022-12-29T16:22:09;19.63;;;9.90;;
19942;SDS011;10133;50.956;17.276;2022-12-29T16:24:39;22.67;;;10.30;;
19942;SDS011;10133;50.956;17.276;2022-12-29T16:27:13;28.77;;;15.50;;
19942;SDS011;10133;50.956;17.276;2022-12-29T16:29:47;32.73;;;21.43;;
19942;SDS011;10133;50.956;17.276;2022-12-29T16:32:23;18.17;;;10.27;;
19942;SDS011;10133;50.956;17.276;2022-12-29T16:35:09;25.50;;;13.27;;
19942;SDS011;10133;50.956;17.276;2022-12-29T16:37:36;20.33;;;10.10;;
19942;SDS011;10133;50.956;17.276;2022-12-29T16:40:23;26.80;;;10.97;;
19942;SDS011;10133;50.956;17.276;2022-12-29T16:42:56;45.23;;;14.83;;
19942;SDS011;10133;50.956;17.276;2022-12-29T16:50:46;47.97;;;15.00;;
19942;SDS011;10133;50.956;17.276;2022-12-29T16:53:19;39.87;;;13.60;;
19942;SDS011;10133;50.956;17.276;2022-12-29T16:55:51;40.97;;;14.33;;
19942;SDS011;10133;50.956;17.276;2022-12-29T16:58:20;34.37;;;12.97;;
19942;SDS011;10133;50.956;17.276;2022-12-29T17:00:52;37.23;;;14.30;;
19942;SDS011;10133;50.956;17.276;2022-12-29T17:03:23;32.10;;;13.47;;
19942;SDS011;10133;50.956;17.276;2022-12-29T17:05:59;52.50;;;17.63;;
19942;SDS011;10133;50.956;17.276;2022-12-29T17:08:26;62.17;;;19.17;;
19942;SDS011;10133;50.956;17.276;2022-12-29T17:10:56;48.87;;;16.13;;
19942;SDS011;10133;50.956;17.276;2022-12-29T17:13:42;45.33;;;14.97;;
19942;SDS011;10133;50.956;17.276;2022-12-29T17:16:10;53.00;;;19.40;;
19942;SDS011;10133;50.956;17.276;2022-12-29T17:18:38;47.20;;;15.70;;
19942;SDS011;10133;50.956;17.276;2022-12-29T17:21:05;37.10;;;13.10;;
19942;SDS011;10133;50.956;17.276;2022-12-29T17:23:32;28.83;;;11.77;;
19942;SDS011;10133;50.956;17.276;2022-12-29T17:26:00;73.47;;;25.47;;
19942;SDS011;10133;50.956;17.276;2022-12-29T17:28:28;44.63;;;15.37;;
19942;SDS011;10133;50.956;17.276;2022-12-29T17:31:01;35.10;;;13.77;;
19942;SDS011;10133;50.956;17.276;2022-12-29T17:33:34;48.77;;;16.30;;
19942;SDS011;10133;50.956;17.276;2022-12-29T17:36:03;65.37;;;21.97;;
19942;SDS011;10133;50.956;17.276;2022-12-29T17:38:31;53.30;;;16.97;;